createdAt,value
2023-01-15T00:00:52.435Z,0.65
2023-01-15T00:03:33.646Z,0.63
2023-01-15T00:15:15.214Z,0.77
2023-01-15T00:17:53.198Z,0.60
2023-01-15T00:20:25.981Z,0.68
2023-01-15T00:27:03.088Z,0.60
2023-01-15T00:30:19.698Z,0.50
2023-01-15T00:36:37.918Z,0.70
2023-01-15T00:39:11.079Z,0.70
2023-01-15T00:41:41.122Z,0.60
2023-01-15T00:44:09.386Z,0.60
2023-01-15T00:46:37.910Z,0.60
2023-01-15T00:49:06.385Z,0.70
2023-01-15T00:51:35.946Z,0.65
2023-01-15T00:54:04.812Z,0.45
2023-01-15T00:56:34.792Z,0.50
2023-01-15T00:59:03.253Z,0.60
2023-01-15T01:01:31.891Z,0.47
2023-01-15T01:04:00.061Z,0.60
2023-01-15T01:06:28.478Z,0.77
2023-01-15T01:08:57.898Z,0.52
2023-01-15T01:11:28.426Z,0.60
2023-01-15T01:13:56.635Z,0.70
2023-01-15T01:16:27.546Z,0.40
2023-01-15T01:18:55.856Z,0.57
2023-01-15T01:21:23.947Z,0.52
2023-01-15T01:23:52.070Z,0.50
2023-01-15T01:26:21.359Z,0.40
2023-01-15T01:28:53.988Z,0.50
2023-01-15T01:31:23.116Z,0.50
2023-01-15T01:33:51.589Z,0.60
2023-01-15T01:36:20.178Z,0.50
2023-01-15T01:38:50.127Z,0.52
2023-01-15T01:41:18.702Z,0.65
2023-01-15T01:43:57.737Z,0.52
2023-01-15T01:46:26.155Z,0.40
2023-01-15T01:48:56.982Z,0.57
2023-01-15T01:51:28.899Z,0.50
2023-01-15T01:53:58.065Z,0.50
2023-01-15T01:56:26.626Z,0.40
2023-01-15T01:58:59.410Z,0.45
2023-01-15T02:01:37.852Z,0.50
2023-01-15T02:04:12.430Z,0.50
2023-01-15T02:06:45.188Z,0.47
2023-01-15T02:09:34.383Z,0.60
2023-01-15T02:12:14.742Z,0.50
2023-01-15T02:15:00.553Z,0.52
2023-01-15T02:17:38.703Z,0.50
2023-01-15T02:20:33.464Z,0.40
2023-01-15T02:23:30.233Z,0.40
2023-01-15T02:26:52.303Z,0.60
2023-01-15T02:29:29.668Z,0.52
2023-01-15T02:32:00.866Z,0.45
2023-01-15T02:34:34.528Z,0.68
2023-01-15T02:37:13.829Z,0.60
2023-01-15T02:39:46.742Z,0.60
2023-01-15T02:42:18.875Z,0.40
2023-01-15T02:44:52.477Z,0.55
2023-01-15T02:47:25.633Z,0.50
2023-01-15T02:49:58.565Z,0.60
2023-01-15T02:52:31.000Z,0.60
2023-01-15T02:55:04.000Z,0.40
2023-01-15T02:57:38.689Z,0.50
2023-01-15T03:00:10.721Z,0.60
2023-01-15T03:02:44.382Z,0.70
2023-01-15T03:05:18.869Z,0.55
2023-01-15T03:07:52.619Z,0.52
2023-01-15T03:10:23.809Z,0.57
2023-01-15T03:13:04.968Z,0.60
2023-01-15T03:16:09.977Z,0.70
2023-01-15T03:18:45.268Z,0.70
2023-01-15T03:21:18.635Z,0.90
2023-01-15T03:23:52.177Z,1.50
2023-01-15T03:26:20.457Z,0.95
2023-01-15T03:28:54.493Z,0.98
2023-01-15T03:31:24.039Z,1.00
2023-01-15T03:33:52.227Z,0.73
2023-01-15T03:36:22.411Z,0.82
2023-01-15T03:38:52.605Z,0.93
2023-01-15T03:42:04.219Z,0.70
2023-01-15T03:44:40.982Z,0.80
2023-01-15T03:47:25.165Z,0.70
2023-01-15T03:50:04.801Z,0.70
2023-01-15T03:52:47.580Z,0.70
2023-01-15T03:55:20.410Z,0.70
2023-01-15T03:58:01.104Z,0.60
2023-01-15T04:00:37.617Z,0.70
2023-01-15T04:03:08.451Z,0.60
2023-01-15T04:05:39.521Z,0.60
2023-01-15T04:08:09.889Z,0.70
2023-01-15T04:10:37.947Z,0.82
2023-01-15T04:13:10.423Z,0.60
2023-01-15T04:15:42.478Z,0.85
2023-01-15T04:18:10.410Z,0.50
2023-01-15T04:20:38.165Z,0.80
2023-01-15T04:23:06.013Z,0.70
2023-01-15T04:25:34.117Z,0.70
2023-01-15T04:28:05.743Z,0.60
2023-01-15T04:30:36.238Z,0.50
2023-01-15T04:33:06.763Z,0.70
2023-01-15T04:35:36.255Z,0.60
2023-01-15T04:38:05.381Z,0.47
2023-01-15T04:40:54.030Z,0.93
2023-01-15T04:43:42.242Z,0.70
2023-01-15T04:46:13.647Z,0.65
2023-01-15T04:48:44.469Z,0.70
2023-01-15T04:51:20.003Z,0.70
2023-01-15T04:53:47.940Z,0.90
2023-01-15T04:56:19.716Z,0.70
2023-01-15T04:58:47.743Z,1.00
2023-01-15T05:01:21.929Z,0.90
2023-01-15T05:03:52.413Z,0.60
2023-01-15T05:06:20.375Z,0.68
2023-01-15T05:08:48.339Z,0.73
2023-01-15T05:11:16.285Z,0.70
2023-01-15T05:13:44.343Z,0.70
2023-01-15T05:16:15.344Z,0.70
2023-01-15T05:18:44.074Z,0.90
2023-01-15T05:21:20.600Z,0.70
2023-01-15T05:23:49.034Z,0.73
2023-01-15T05:26:16.972Z,1.10
2023-01-15T05:28:59.196Z,0.60
2023-01-15T05:31:46.324Z,0.90
2023-01-15T05:34:15.897Z,0.80
2023-01-15T05:36:49.917Z,1.00
2023-01-15T05:39:18.317Z,0.77
2023-01-15T05:41:53.275Z,0.60
2023-01-15T05:44:26.329Z,1.00
2023-01-15T05:46:56.429Z,0.70
2023-01-15T05:49:32.111Z,0.80
2023-01-15T05:52:02.548Z,0.68
2023-01-15T05:54:32.626Z,0.65
2023-01-15T05:57:01.722Z,0.68
2023-01-15T05:59:30.895Z,0.70
2023-01-15T06:01:59.090Z,0.82
2023-01-15T06:04:26.924Z,0.60
2023-01-15T06:07:02.217Z,0.90
2023-01-15T06:09:36.364Z,0.80
2023-01-15T06:12:05.166Z,0.88
2023-01-15T06:14:33.601Z,0.80
2023-01-15T06:17:01.557Z,0.70
2023-01-15T06:19:29.646Z,0.93
2023-01-15T06:21:58.398Z,0.70
2023-01-15T06:24:26.231Z,1.00
2023-01-15T06:26:55.485Z,0.60
2023-01-15T06:29:23.441Z,0.90
2023-01-15T06:31:51.548Z,1.35
2023-01-15T06:34:19.710Z,1.10
2023-01-15T06:36:47.642Z,1.27
2023-01-15T06:39:17.924Z,0.88
2023-01-15T06:42:03.438Z,0.90
2023-01-15T06:44:50.137Z,0.77
2023-01-15T06:47:23.253Z,1.08
2023-01-15T06:49:54.646Z,0.90
2023-01-15T06:52:22.738Z,0.88
2023-01-15T06:54:50.583Z,0.90
2023-01-15T06:57:18.908Z,0.88
2023-01-15T06:59:48.450Z,0.80
2023-01-15T07:02:17.820Z,0.75
2023-01-15T07:04:45.693Z,0.55
2023-01-15T07:07:13.550Z,0.85
2023-01-15T07:09:41.373Z,0.88
2023-01-15T07:12:09.133Z,1.00
2023-01-15T07:14:36.961Z,0.75
2023-01-15T07:17:06.192Z,0.80
2023-01-15T07:19:34.102Z,0.60
2023-01-15T07:22:01.888Z,0.80
2023-01-15T07:24:29.754Z,0.80
2023-01-15T07:26:57.567Z,0.88
2023-01-15T07:29:45.276Z,0.95
2023-01-15T07:32:23.914Z,0.82
2023-01-15T07:34:54.840Z,0.80
2023-01-15T07:37:23.021Z,0.60
2023-01-15T07:39:50.959Z,0.90
2023-01-15T07:42:36.717Z,0.80
2023-01-15T07:45:22.618Z,0.68
2023-01-15T07:48:09.646Z,0.80
2023-01-15T07:50:37.948Z,0.75
2023-01-15T07:53:05.826Z,0.90
2023-01-15T07:55:34.510Z,0.68
2023-01-15T07:58:03.809Z,0.80
2023-01-15T08:00:31.753Z,0.70
2023-01-15T08:03:01.402Z,0.90
2023-01-15T08:05:29.402Z,0.80
2023-01-15T08:07:57.342Z,0.98
2023-01-15T08:10:26.455Z,0.77
2023-01-15T08:13:11.636Z,0.75
2023-01-15T08:15:42.837Z,0.90
2023-01-15T08:18:13.145Z,0.85
2023-01-15T08:20:41.243Z,0.68
2023-01-15T08:23:10.710Z,0.80
2023-01-15T08:25:38.590Z,0.70
2023-01-15T08:28:06.525Z,0.70
2023-01-15T08:30:35.313Z,0.70
2023-01-15T08:33:05.231Z,0.60
2023-01-15T08:35:37.098Z,0.60
2023-01-15T08:38:08.236Z,0.70
2023-01-15T08:44:30.055Z,0.40
2023-01-15T08:47:00.478Z,0.60
2023-01-15T08:49:28.435Z,0.88
2023-01-15T08:51:57.619Z,0.65
2023-01-15T08:54:25.895Z,0.63
2023-01-15T08:56:53.924Z,0.90
2023-01-15T08:59:21.749Z,0.50
2023-01-15T09:01:49.747Z,0.60
2023-01-15T09:04:19.209Z,0.82
2023-01-15T09:06:48.155Z,0.68
2023-01-15T09:09:18.850Z,0.57
2023-01-15T09:11:46.850Z,0.60
2023-01-15T09:14:58.402Z,0.60
2023-01-15T09:17:07.452Z,0.60
2023-01-15T09:19:39.728Z,0.60
2023-01-15T09:22:23.699Z,0.70
2023-01-15T09:24:56.750Z,0.57
2023-01-15T09:27:24.728Z,0.90
2023-01-15T09:29:53.014Z,0.80
2023-01-15T09:32:20.866Z,0.55
2023-01-15T09:34:48.967Z,0.70
2023-01-15T09:37:17.345Z,0.73
2023-01-15T09:39:45.337Z,0.68
2023-01-15T09:42:27.865Z,0.93
2023-01-15T09:45:15.439Z,0.98
2023-01-15T09:47:56.338Z,0.80
2023-01-15T09:50:33.058Z,0.90
2023-01-15T09:53:15.558Z,1.02
2023-01-15T09:55:47.226Z,1.10
2023-01-15T09:58:21.324Z,1.08
2023-01-15T10:00:54.931Z,1.27
2023-01-15T10:03:42.523Z,1.10
2023-01-15T10:06:21.089Z,0.93
2023-01-15T10:08:50.957Z,0.98
2023-01-15T10:11:46.647Z,0.90
2023-01-15T10:14:26.746Z,0.93
2023-01-15T10:17:08.350Z,0.90
2023-01-15T10:19:44.838Z,0.95
2023-01-15T10:22:20.977Z,0.98
2023-01-15T10:24:57.192Z,0.90
2023-01-15T10:27:37.292Z,0.90
2023-01-15T10:30:32.766Z,1.17
2023-01-15T10:33:25.648Z,0.80
2023-01-15T10:36:03.388Z,0.73
2023-01-15T10:38:40.698Z,0.65
2023-01-15T10:41:31.394Z,0.80
2023-01-15T10:44:05.407Z,1.10
2023-01-15T10:46:40.725Z,1.10
2023-01-15T10:49:19.381Z,1.20
2023-01-15T10:51:52.734Z,0.93
2023-01-15T10:54:32.930Z,0.98
2023-01-15T10:57:12.952Z,0.70
2023-01-15T10:59:50.573Z,1.23
2023-01-15T11:02:28.568Z,0.95
2023-01-15T11:04:56.851Z,0.93
2023-01-15T11:08:08.614Z,0.80
2023-01-15T11:10:39.399Z,1.02
2023-01-15T11:13:40.647Z,1.00
2023-01-15T11:16:36.126Z,1.00
2023-01-15T11:19:24.448Z,0.98
2023-01-15T11:21:54.955Z,1.05
2023-01-15T11:24:22.756Z,0.90
2023-01-15T11:26:54.763Z,0.90
2023-01-15T11:29:34.549Z,0.80
2023-01-15T11:32:02.410Z,0.63
2023-01-15T11:34:32.838Z,0.70
2023-01-15T11:37:05.485Z,1.13
2023-01-15T11:39:33.573Z,0.80
2023-01-15T11:42:20.810Z,0.90
2023-01-15T11:45:10.834Z,1.15
2023-01-15T11:47:56.546Z,1.00
2023-01-15T11:50:43.380Z,0.98
2023-01-15T11:53:19.050Z,0.60
2023-01-15T11:56:04.272Z,0.90
2023-01-15T11:58:40.432Z,0.70
2023-01-15T12:01:09.335Z,0.90
2023-01-15T12:03:37.977Z,0.70
2023-01-15T12:06:12.007Z,0.70
2023-01-15T12:08:49.090Z,0.70
2023-01-15T12:11:55.153Z,0.73
2023-01-15T12:14:40.399Z,0.80
2023-01-15T12:17:21.529Z,0.80
2023-01-15T12:20:00.975Z,0.77
2023-01-15T12:22:41.097Z,0.90
2023-01-15T12:25:21.456Z,0.80
2023-01-15T12:28:02.220Z,0.80
2023-01-15T12:30:37.779Z,0.73
2023-01-15T12:33:18.192Z,0.90
2023-01-15T12:35:56.259Z,0.90
2023-01-15T12:38:38.949Z,0.90
2023-01-15T12:41:13.970Z,0.73
2023-01-15T12:44:04.957Z,0.65
2023-01-15T12:46:40.558Z,0.68
2023-01-15T12:49:17.363Z,0.70
2023-01-15T12:51:51.098Z,0.75
2023-01-15T12:54:25.488Z,0.70
2023-01-15T12:57:00.085Z,0.70
2023-01-15T12:59:35.798Z,0.80
2023-01-15T13:02:15.642Z,0.60
2023-01-15T13:04:49.638Z,0.60
2023-01-15T13:07:30.702Z,1.05
2023-01-15T13:10:08.347Z,0.80
2023-01-15T13:12:36.660Z,0.90
2023-01-15T13:15:06.139Z,0.70
2023-01-15T13:17:44.669Z,0.60
2023-01-15T13:20:35.339Z,0.55
2023-01-15T13:23:10.239Z,0.70
2023-01-15T13:26:03.886Z,0.80
2023-01-15T13:28:42.845Z,0.80
2023-01-15T13:31:32.814Z,0.80
2023-01-15T13:34:04.858Z,0.70
2023-01-15T13:36:40.739Z,0.50
2023-01-15T13:39:16.899Z,0.50
2023-01-15T13:42:07.414Z,0.60
2023-01-15T13:44:42.841Z,0.63
2023-01-15T13:47:14.345Z,0.90
2023-01-15T13:49:49.785Z,0.90
2023-01-15T13:52:26.261Z,0.63
2023-01-15T13:54:59.540Z,0.85
2023-01-15T13:57:35.792Z,0.60
2023-01-15T14:00:33.833Z,0.63
2023-01-15T14:03:03.914Z,0.73
2023-01-15T14:05:33.747Z,0.60
2023-01-15T14:08:03.070Z,1.40
2023-01-15T14:10:38.626Z,0.80
2023-01-15T14:13:28.094Z,0.60
2023-01-15T14:16:09.714Z,0.68
2023-01-15T14:19:18.245Z,0.85
2023-01-15T14:21:55.029Z,0.80
2023-01-15T14:24:50.868Z,0.77
2023-01-15T14:27:45.883Z,0.75
2023-01-15T14:30:32.425Z,0.98
2023-01-15T14:33:12.606Z,0.70
2023-01-15T14:35:46.720Z,0.70
2023-01-15T14:38:18.956Z,0.68
2023-01-15T14:40:59.543Z,0.63
2023-01-15T14:43:29.133Z,0.80
2023-01-15T14:49:29.940Z,0.70
2023-01-15T14:51:59.753Z,0.57
2023-01-15T14:54:28.628Z,0.85
2023-01-15T14:57:04.423Z,0.70
2023-01-15T14:59:44.023Z,0.63
2023-01-15T15:02:22.561Z,0.90
2023-01-15T15:04:56.125Z,0.70
2023-01-15T15:07:29.632Z,0.80
2023-01-15T15:10:03.142Z,0.60
2023-01-15T15:15:13.486Z,0.70
2023-01-15T15:17:50.715Z,0.80
2023-01-15T15:20:29.342Z,0.70
2023-01-15T15:23:04.892Z,0.70
2023-01-15T15:25:38.174Z,0.80
2023-01-15T15:28:11.318Z,0.77
2023-01-15T15:30:44.904Z,0.52
2023-01-15T15:33:19.258Z,0.70
2023-01-15T15:35:50.427Z,0.90
2023-01-15T15:38:20.341Z,0.60
2023-01-15T15:40:53.114Z,0.73
2023-01-15T15:43:43.815Z,0.65
2023-01-15T15:46:42.144Z,0.90
2023-01-15T15:49:11.351Z,0.80
2023-01-15T15:51:41.333Z,1.08
2023-01-15T15:54:16.540Z,0.82
2023-01-15T15:56:48.534Z,0.70
2023-01-15T15:59:29.422Z,0.90
2023-01-15T16:02:17.701Z,0.82
2023-01-15T16:04:51.015Z,1.13
2023-01-15T16:07:25.310Z,0.90
2023-01-15T16:09:55.776Z,0.95
2023-01-15T16:12:24.656Z,1.02
2023-01-15T16:14:53.654Z,0.70
2023-01-15T16:17:28.370Z,0.90
2023-01-15T16:19:58.582Z,0.80
2023-01-15T16:22:26.524Z,0.73
2023-01-15T16:24:56.976Z,0.80
2023-01-15T16:27:28.477Z,0.85
2023-01-15T16:29:56.399Z,0.73
2023-01-15T16:32:28.870Z,0.85
2023-01-15T16:35:07.360Z,0.80
2023-01-15T16:37:35.956Z,0.80
2023-01-15T16:40:06.229Z,0.90
2023-01-15T16:42:37.219Z,0.80
2023-01-15T16:45:19.007Z,1.02
2023-01-15T16:48:02.856Z,0.90
2023-01-15T16:50:33.825Z,0.98
2023-01-15T16:53:03.142Z,0.95
2023-01-15T16:55:42.999Z,1.00
2023-01-15T16:58:22.766Z,1.00
2023-01-15T17:00:53.444Z,1.35
2023-01-15T17:03:24.608Z,1.20
2023-01-15T17:05:57.290Z,1.35
2023-01-15T17:08:33.006Z,1.20
2023-01-15T17:11:03.374Z,1.00
2023-01-15T17:13:36.553Z,1.00
2023-01-15T17:16:07.999Z,1.20
2023-01-15T17:18:36.336Z,1.08
2023-01-15T17:21:07.098Z,0.95
2023-01-15T17:23:37.497Z,1.05
2023-01-15T17:26:06.768Z,0.77
2023-01-15T17:28:35.308Z,0.90
2023-01-15T17:31:04.159Z,0.80
2023-01-15T17:33:31.970Z,0.68
2023-01-15T17:36:01.244Z,0.77
2023-01-15T17:38:30.458Z,0.90
2023-01-15T17:41:00.697Z,0.90
2023-01-15T17:43:28.469Z,0.90
2023-01-15T17:45:56.306Z,0.98
2023-01-15T17:48:24.089Z,0.90
2023-01-15T17:50:51.941Z,0.85
2023-01-15T17:53:19.716Z,1.20
2023-01-15T17:56:06.174Z,0.82
2023-01-15T17:58:51.445Z,0.88
2023-01-15T18:01:47.518Z,1.10
2023-01-15T18:04:37.154Z,0.80
2023-01-15T18:07:05.954Z,1.17
2023-01-15T18:09:35.961Z,1.00
2023-01-15T18:12:06.172Z,0.98
2023-01-15T18:14:33.953Z,1.17
2023-01-15T18:17:02.553Z,0.82
2023-01-15T18:19:30.727Z,0.82
2023-01-15T18:21:58.640Z,1.30
2023-01-15T18:24:26.476Z,1.10
2023-01-15T18:26:55.464Z,1.10
2023-01-15T18:29:24.803Z,1.17
2023-01-15T18:31:52.589Z,1.08
2023-01-15T18:34:20.392Z,1.10
2023-01-15T18:36:48.382Z,1.42
2023-01-15T18:39:16.298Z,1.27
2023-01-15T18:42:01.657Z,1.20
2023-01-15T18:44:48.381Z,1.30
2023-01-15T18:47:17.613Z,1.00
2023-01-15T18:49:46.893Z,1.00
2023-01-15T18:52:34.734Z,1.17
2023-01-15T18:55:02.749Z,1.10
2023-01-15T18:57:33.950Z,1.20
2023-01-15T19:00:05.830Z,1.55
2023-01-15T19:02:33.744Z,1.30
2023-01-15T19:05:03.333Z,1.33
2023-01-15T19:07:31.661Z,1.70
2023-01-15T19:09:59.696Z,1.25
2023-01-15T19:12:27.701Z,1.27
2023-01-15T19:15:12.954Z,1.40
2023-01-15T19:18:10.941Z,4.40
2023-01-15T19:20:42.363Z,4.05
2023-01-15T19:23:21.795Z,4.40
2023-01-15T19:25:50.184Z,3.03
2023-01-15T19:28:20.914Z,2.30
2023-01-15T19:31:12.508Z,2.20
2023-01-15T19:33:41.731Z,1.70
2023-01-15T19:36:10.119Z,1.65
2023-01-15T19:38:39.194Z,1.45
2023-01-15T19:41:28.344Z,1.40
2023-01-15T19:44:14.003Z,1.88
2023-01-15T19:46:59.604Z,1.90
2023-01-15T19:49:51.630Z,1.67
2023-01-15T19:52:38.681Z,1.42
2023-01-15T19:55:10.753Z,1.20
2023-01-15T19:57:38.908Z,1.30
2023-01-15T20:00:33.139Z,1.30
2023-01-15T20:03:02.234Z,1.20
2023-01-15T20:05:33.075Z,1.33
2023-01-15T20:08:01.130Z,1.35
2023-01-15T20:10:31.762Z,1.30
2023-01-15T20:13:17.409Z,1.23
2023-01-15T20:15:46.580Z,1.27
2023-01-15T20:18:14.759Z,1.02
2023-01-15T20:20:44.435Z,1.10
2023-01-15T20:23:12.287Z,1.30
2023-01-15T20:25:41.457Z,1.25
2023-01-15T20:28:09.267Z,0.95
2023-01-15T20:30:37.044Z,1.00
2023-01-15T20:33:04.997Z,1.33
2023-01-15T20:35:33.489Z,1.00
2023-01-15T20:38:02.704Z,1.40
2023-01-15T20:40:30.672Z,1.38
2023-01-15T20:43:15.924Z,1.25
2023-01-15T20:45:43.810Z,1.08
2023-01-15T20:48:29.285Z,1.05
2023-01-15T20:51:05.980Z,1.30
2023-01-15T20:53:35.663Z,1.05
2023-01-15T20:56:05.051Z,1.17
2023-01-15T20:58:33.004Z,1.15
2023-01-15T21:01:07.114Z,1.45
2023-01-15T21:03:39.600Z,1.30
2023-01-15T21:06:08.575Z,1.45
2023-01-15T21:08:39.715Z,1.70
2023-01-15T21:11:07.898Z,1.75
2023-01-15T21:13:36.716Z,1.45
2023-01-15T21:16:07.366Z,1.67
2023-01-15T21:18:37.266Z,1.65
2023-01-15T21:21:09.966Z,1.30
2023-01-15T21:23:40.255Z,1.20
2023-01-15T21:26:08.324Z,1.20
2023-01-15T21:28:36.418Z,1.05
2023-01-15T21:31:07.790Z,1.08
2023-01-15T21:33:35.975Z,1.10
2023-01-15T21:36:07.427Z,1.02
2023-01-15T21:38:35.360Z,1.20
2023-01-15T21:41:09.966Z,1.20
2023-01-15T21:43:55.229Z,1.10
2023-01-15T21:46:27.106Z,1.20
2023-01-15T21:48:54.984Z,0.98
2023-01-15T21:51:22.966Z,0.95
2023-01-15T21:53:50.814Z,1.00
2023-01-15T21:56:19.985Z,1.00
2023-01-15T21:58:47.851Z,1.10
2023-01-15T22:01:18.126Z,1.10
2023-01-15T22:03:46.200Z,1.20
2023-01-15T22:06:15.250Z,1.08
2023-01-15T22:08:43.333Z,1.33
2023-01-15T22:11:11.831Z,1.27
2023-01-15T22:13:41.668Z,1.20
2023-01-15T22:16:09.883Z,1.20
2023-01-15T22:18:37.856Z,1.20
2023-01-15T22:21:08.529Z,1.10
2023-01-15T22:23:36.424Z,1.08
2023-01-15T22:26:04.308Z,1.15
2023-01-15T22:28:33.744Z,1.10
2023-01-15T22:31:07.936Z,1.10
2023-01-15T22:33:35.969Z,1.10
2023-01-15T22:36:04.424Z,1.00
2023-01-15T22:38:32.367Z,1.05
2023-01-15T22:41:00.894Z,1.20
2023-01-15T22:43:30.461Z,1.15
2023-01-15T22:46:10.556Z,1.08
2023-01-15T22:48:48.289Z,1.00
2023-01-15T22:51:16.661Z,1.10
2023-01-15T22:53:44.559Z,0.85
2023-01-15T22:56:12.973Z,0.88
2023-01-15T22:58:42.655Z,1.10
2023-01-15T23:01:10.962Z,1.00
2023-01-15T23:03:39.637Z,0.70
2023-01-15T23:06:12.092Z,0.90
2023-01-15T23:08:40.463Z,0.75
2023-01-15T23:11:11.335Z,1.10
2023-01-15T23:13:39.766Z,1.55
2023-01-15T23:16:07.738Z,1.00
2023-01-15T23:18:36.094Z,1.15
2023-01-15T23:21:05.404Z,0.80
2023-01-15T23:23:34.883Z,1.05
2023-01-15T23:26:03.133Z,0.80
2023-01-15T23:28:31.227Z,0.70
2023-01-15T23:30:59.141Z,0.90
2023-01-15T23:33:27.203Z,0.80
2023-01-15T23:35:55.414Z,0.82
2023-01-15T23:38:23.354Z,0.80
2023-01-15T23:40:52.566Z,0.80
2023-01-15T23:43:38.357Z,0.90
2023-01-15T23:46:37.080Z,0.80
2023-01-15T23:49:07.288Z,0.75
2023-01-15T23:51:35.684Z,0.60
2023-01-15T23:54:04.290Z,0.80
2023-01-15T23:56:34.282Z,0.70
2023-01-15T23:59:01.960Z,0.57
